Aérodrome :
LOGIN :

S'inscrire | Disclaimer

   EN    FR    IT 

 










Légende :    VFR   VFR Marginal   IFR   IFR Intensif   IFR Très Intensif
Visi : 
Plafond : 
>= 8 km
>= 3000ft
5 à 8 km
1000 à 3000 ft
1500m à 5 km
500 à 1000 ft
800 à 1500m
200 à 500 ft
< 800m
< 200 ft
Symboles :   Orages  Brouillard  Fortes neiges  Fortes précipitations  Vent > 20 kt
SIGMETs :   Divers  Orages  Givrage  Turbulence  Onde Orograph.  Cendres Volcan.






- Altitude de l'aérodrome : 52 ft
- Code IATA : RNN


EKRN - Bornholm Ronne

DERNIER METAR :
  • 132050Z AUTO 18017KT 9999 SCT068/// BKN190/// 15/15 Q1006

METARs EXPIRÉS :
  • 132020Z AUTO 16015KT 9999 FEW066/// OVC073/// 15/15 Q1006
  • 131950Z AUTO 14013KT 9999 BKN045/// BKN090/// 15/15 Q1006
  • 131920Z AUTO 12012KT 9999 -SHRA BKN041/// OVC067/// 15/14 Q1007
  • 131850Z AUTO 12014KT 9999 FEW028/// SCT039/// SCT064/// BKN087/// 14/14 Q1007
  • 131820Z AUTO 10010KT 9999 BKN028/// BKN056/// BKN076/// 13/13 Q1008

TAF TAF EKRN
Valide du 13 à 18h jusqu'au 13 à 22h UTC


131730Z 1318/1322 12015KT 9999 BKN018
TEMPO 1318/1320 3000 RA BKN008 FEW050CB
BECMG 1319/1321 21020KT



MET'MAP, la Météo Aéronautique d'un coup d'oeil ! - Copyright ORBIFLY Décembre 2007 - Disclaimer

ORBIFLY MET'MAP TEAM :

Programmation & Développement : Alexandra Zaïnal
Conception & Développement : Baudouin d'Aumeries
Co-Programmation & Développement : Marc-Olivier Méhu
Soutien technique & logistique : Manuel Goepfert

Contact : metmap@orbifly.com




SOURCES & CREDITS :

   NOAA